Time;durP1;ratioP1;P1;durP2;ratioP2;P2;SDS_P1;SDS_P2;PMS_P1;PMS_P2;Temp;Humidity;BMP_temperature;BMP_pressure;BME280_temperature;BME280_humidity;BME280_pressure;Samples;Min_cycle;Max_cycle;Signal;HPM_P1;HPM_P2
2022/05/17 00:00:44;;;;;;;;;5.33;5.00;;;;;;;;5097925;27;45409;-78
2022/05/17 00:03:09;;;;;;;;;5.00;3.67;;;;;;;;5097812;27;46338;-78
2022/05/17 00:05:34;;;;;;;;;6.00;4.00;;;;;;;;5097426;27;45290;-78
2022/05/17 00:08:00;;;;;;;;;4.67;4.67;;;;;;;;5097560;27;45377;-78
2022/05/17 00:10:26;;;;;;;;;4.00;4.00;;;;;;;;5097750;27;45336;-78
2022/05/17 00:12:51;;;;;;;;;5.00;5.00;;;;;;;;5097404;27;46078;-78
2022/05/17 00:15:17;;;;;;;;;6.67;4.00;;;;;;;;5097571;27;45534;-78
2022/05/17 00:17:43;;;;;;;;;3.00;3.00;;;;;;;;5097640;27;45290;-78
2022/05/17 00:20:08;;;;;;;;;5.00;3.00;;;;;;;;5097501;27;45520;-78
2022/05/17 00:22:34;;;;;;;;;4.33;4.00;;;;;;;;5096972;27;46024;-78
2022/05/17 00:24:59;;;;;;;;;5.00;3.33;;;;;;;;5097113;27;45340;-78
2022/05/17 00:27:24;;;;;;;;;3.00;3.00;;;;;;;;5097626;27;45321;-77
2022/05/17 00:29:50;;;;;;;;;4.67;2.67;;;;;;;;5097549;27;45405;-78
2022/05/17 00:32:15;;;;;;;;;2.00;2.00;;;;;;;;5097346;27;45593;-78
2022/05/17 00:34:41;;;;;;;;;2.00;2.00;;;;;;;;5097186;27;45273;-78
2022/05/17 00:37:06;;;;;;;;;2.33;2.33;;;;;;;;5097250;27;45461;-78
2022/05/17 00:39:32;;;;;;;;;2.00;2.00;;;;;;;;5100981;27;45580;-78
2022/05/17 00:41:58;;;;;;;;;2.00;2.00;;;;;;;;5100551;27;47338;-78
2022/05/17 00:47:27;;;;;;;;;1.67;1.00;;;;;;;;5100860;27;45348;-78
2022/05/17 00:50:08;;;;;;;;;2.00;1.00;;;;;;;;5100425;27;45379;-78
2022/05/17 00:52:33;;;;;;;;;1.00;1.00;;;;;;;;5100305;27;46780;-78
2022/05/17 00:55:01;;;;;;;;;1.00;1.00;;;;;;;;5100353;27;45379;-79
2022/05/17 00:57:32;;;;;;;;;1.33;1.33;;;;;;;;5100459;27;45377;-78
2022/05/17 00:59:59;;;;;;;;;2.00;2.00;;;;;;;;5100499;27;45290;-77
2022/05/17 01:02:25;;;;;;;;;1.00;1.00;;;;;;;;5099181;27;46417;-77
2022/05/17 01:04:51;;;;;;;;;3.00;1.67;;;;;;;;5100164;27;45307;-78
2022/05/17 01:07:18;;;;;;;;;3.00;3.00;;;;;;;;5100433;27;45263;-78
2022/05/17 01:09:43;;;;;;;;;1.00;1.00;;;;;;;;5100492;27;45379;-78
2022/05/17 01:12:08;;;;;;;;;2.33;2.33;;;;;;;;5098652;27;46440;-78
2022/05/17 01:17:17;;;;;;;;;3.00;1.33;;;;;;;;5100014;27;45402;-78
2022/05/17 01:19:43;;;;;;;;;2.33;1.00;;;;;;;;5100220;27;45324;-78
2022/05/17 01:22:08;;;;;;;;;4.33;2.00;;;;;;;;5099724;27;45567;-77
2022/05/17 01:24:34;;;;;;;;;3.67;2.33;;;;;;;;5099771;27;45383;-78
2022/05/17 01:27:02;;;;;;;;;2.67;2.33;;;;;;;;5099932;27;45426;-78
2022/05/17 01:29:27;;;;;;;;;1.33;1.33;;;;;;;;5100051;27;45324;-78
2022/05/17 01:31:53;;;;;;;;;4.00;3.00;;;;;;;;5099801;27;45985;-78
2022/05/17 01:34:18;;;;;;;;;4.00;2.00;;;;;;;;5099823;27;45208;-78
2022/05/17 01:36:43;;;;;;;;;4.33;3.00;;;;;;;;5099917;27;45324;-78
2022/05/17 01:39:09;;;;;;;;;4.00;2.00;;;;;;;;5099705;27;45565;-78
2022/05/17 01:41:35;;;;;;;;;2.00;2.00;;;;;;;;5099481;27;46209;-78
2022/05/17 01:44:00;;;;;;;;;6.00;3.00;;;;;;;;5099540;27;45411;-78
2022/05/17 01:46:25;;;;;;;;;1.33;1.33;;;;;;;;5099692;27;45273;-78
2022/05/17 01:48:51;;;;;;;;;2.67;2.67;;;;;;;;5099778;27;45275;-78
2022/05/17 01:51:17;;;;;;;;;2.00;2.00;;;;;;;;5098893;27;46542;-77
2022/05/17 01:53:43;;;;;;;;;1.00;1.00;;;;;;;;5099102;27;45329;-77
2022/05/17 01:56:09;;;;;;;;;1.00;1.00;;;;;;;;5099428;27;45478;-77
2022/05/17 01:58:34;;;;;;;;;4.00;2.33;;;;;;;;5099602;27;45377;-78
2022/05/17 02:01:00;;;;;;;;;3.33;1.67;;;;;;;;5099505;27;46475;-77
2022/05/17 02:03:25;;;;;;;;;2.00;1.00;;;;;;;;5099203;27;45343;-77
2022/05/17 02:05:51;;;;;;;;;2.67;2.67;;;;;;;;5099340;27;45410;-77
2022/05/17 02:08:16;;;;;;;;;2.00;2.00;;;;;;;;5099904;27;45350;-78
2022/05/17 02:10:41;;;;;;;;;3.00;1.00;;;;;;;;5099050;27;46346;-78
2022/05/17 02:13:06;;;;;;;;;3.33;2.00;;;;;;;;5099088;27;45361;-78
2022/05/17 02:15:32;;;;;;;;;3.00;2.00;;;;;;;;5099234;27;45341;-77
2022/05/17 02:17:57;;;;;;;;;3.33;2.00;;;;;;;;5099466;27;45528;-78
2022/05/17 02:20:22;;;;;;;;;2.00;2.00;;;;;;;;5098965;27;45579;-78
2022/05/17 02:22:47;;;;;;;;;2.00;2.00;;;;;;;;5099163;27;45247;-77
2022/05/17 02:25:13;;;;;;;;;2.67;2.33;;;;;;;;5099119;27;45207;-77
2022/05/17 02:27:38;;;;;;;;;2.00;2.00;;;;;;;;5099392;27;45363;-77
2022/05/17 02:30:05;;;;;;;;;1.00;1.00;;;;;;;;5098977;27;45274;-77
2022/05/17 02:32:30;;;;;;;;;1.67;1.33;;;;;;;;5098991;27;45354;-77
2022/05/17 02:34:55;;;;;;;;;4.33;2.00;;;;;;;;5098921;27;45347;-77
2022/05/17 02:37:20;;;;;;;;;3.00;2.00;;;;;;;;5099092;27;45438;-77
2022/05/17 02:39:46;;;;;;;;;3.67;2.67;;;;;;;;5098702;27;46121;-77
2022/05/17 02:42:11;;;;;;;;;1.67;1.67;;;;;;;;5098906;27;45285;-77
2022/05/17 02:44:37;;;;;;;;;2.67;2.67;;;;;;;;5098655;27;45299;-76
2022/05/17 02:47:03;;;;;;;;;3.00;3.00;;;;;;;;5098908;27;45683;-77
2022/05/17 02:49:28;;;;;;;;;4.00;3.00;;;;;;;;5098739;27;47252;-77
2022/05/17 02:51:54;;;;;;;;;5.00;3.00;;;;;;;;5098464;27;45434;-77
2022/05/17 02:54:20;;;;;;;;;2.00;2.00;;;;;;;;5098790;27;45299;-77
2022/05/17 02:56:45;;;;;;;;;3.33;2.67;;;;;;;;5098592;27;45302;-77
2022/05/17 02:59:12;;;;;;;;;3.00;3.00;;;;;;;;5098477;27;46308;-78
2022/05/17 03:01:37;;;;;;;;;3.00;3.00;;;;;;;;5098228;27;45305;-77
2022/05/17 03:04:02;;;;;;;;;4.00;2.00;;;;;;;;5098500;27;45731;-77
2022/05/17 03:06:28;;;;;;;;;2.00;2.00;;;;;;;;5098731;27;45215;-77
2022/05/17 03:08:53;;;;;;;;;4.00;4.00;;;;;;;;5098218;27;45471;-77
2022/05/17 03:11:18;;;;;;;;;3.00;3.00;;;;;;;;5098217;27;45411;-78
2022/05/17 03:13:44;;;;;;;;;3.00;3.00;;;;;;;;5098446;27;45387;-77
2022/05/17 03:16:10;;;;;;;;;2.00;2.00;;;;;;;;5098445;27;45380;-77
2022/05/17 03:18:35;;;;;;;;;3.33;3.00;;;;;;;;5098133;27;46228;-78
2022/05/17 03:21:00;;;;;;;;;7.67;4.33;;;;;;;;5098057;27;45280;-78
2022/05/17 03:23:26;;;;;;;;;3.00;3.00;;;;;;;;5098221;27;45273;-78
2022/05/17 03:25:51;;;;;;;;;3.67;3.33;;;;;;;;5098491;27;45299;-77
2022/05/17 03:28:16;;;;;;;;;4.33;4.00;;;;;;;;5097894;27;46713;-78
2022/05/17 03:30:43;;;;;;;;;13.33;9.67;;;;;;;;5098154;27;45182;-77
2022/05/17 03:33:08;;;;;;;;;6.33;6.33;;;;;;;;5097992;27;45322;-77
2022/05/17 03:35:34;;;;;;;;;7.67;5.33;;;;;;;;5097950;27;45350;-77
2022/05/17 03:37:59;;;;;;;;;6.33;3.33;;;;;;;;5097953;27;46553;-77
2022/05/17 03:40:24;;;;;;;;;5.00;3.00;;;;;;;;5097837;27;45512;-77
2022/05/17 03:42:50;;;;;;;;;4.00;4.00;;;;;;;;5098193;27;45383;-78
2022/05/17 03:45:15;;;;;;;;;4.33;3.67;;;;;;;;5097965;27;45360;-77
2022/05/17 03:47:40;;;;;;;;;4.33;4.33;;;;;;;;5097650;27;47104;-77
2022/05/17 03:50:06;;;;;;;;;7.33;5.00;;;;;;;;5097741;27;45422;-77
2022/05/17 03:52:32;;;;;;;;;26.33;23.33;;;;;;;;5097749;27;45322;-77
2022/05/17 03:54:58;;;;;;;;;6.00;4.00;;;;;;;;5097969;27;45309;-77
2022/05/17 03:57:24;;;;;;;;;6.00;5.00;;;;;;;;5097425;27;45770;-77
2022/05/17 03:59:50;;;;;;;;;3.67;3.33;;;;;;;;5097533;27;45241;-77
2022/05/17 04:02:15;;;;;;;;;7.33;5.00;;;;;;;;5097695;27;45296;-78
2022/05/17 04:04:40;;;;;;;;;4.67;4.67;;;;;;;;5097781;27;45254;-78
2022/05/17 04:07:08;;;;;;;;;9.33;5.67;;;;;;;;5097259;27;46179;-78
2022/05/17 04:09:34;;;;;;;;;5.67;5.67;;;;;;;;5097534;27;45362;-78
2022/05/17 04:11:59;;;;;;;;;6.00;5.67;;;;;;;;5097604;27;45354;-78
2022/05/17 04:14:25;;;;;;;;;7.67;6.00;;;;;;;;5101248;27;45348;-78
2022/05/17 04:16:50;;;;;;;;;7.67;6.00;;;;;;;;5100675;27;46514;-78
2022/05/17 04:19:15;;;;;;;;;6.00;4.67;;;;;;;;5101296;27;45315;-77
2022/05/17 04:21:42;;;;;;;;;4.67;3.00;;;;;;;;5101152;27;45485;-77
2022/05/17 04:24:07;;;;;;;;;5.33;5.33;;;;;;;;5101029;27;45385;-77
2022/05/17 04:26:32;;;;;;;;;6.33;4.33;;;;;;;;5100639;27;46173;-78
2022/05/17 04:28:58;;;;;;;;;5.00;5.00;;;;;;;;5100852;27;45371;-77
2022/05/17 04:31:23;;;;;;;;;7.00;5.00;;;;;;;;5101153;27;45263;-77
2022/05/17 04:33:48;;;;;;;;;6.00;5.00;;;;;;;;5101243;27;45273;-78
2022/05/17 04:36:13;;;;;;;;;7.00;5.67;;;;;;;;5100388;27;46221;-77
2022/05/17 04:38:38;;;;;;;;;7.33;4.67;;;;;;;;5100741;27;45292;-77
2022/05/17 04:41:04;;;;;;;;;6.67;6.33;;;;;;;;5100904;27;45206;-77
2022/05/17 04:43:29;;;;;;;;;6.33;5.33;;;;;;;;5100961;27;45513;-77
2022/05/17 04:45:55;;;;;;;;;12.00;7.33;;;;;;;;5100455;27;46723;-77
2022/05/17 04:48:20;;;;;;;;;8.33;6.00;;;;;;;;5100479;27;45342;-78
2022/05/17 04:50:45;;;;;;;;;11.00;7.00;;;;;;;;5100514;27;45291;-78
2022/05/17 04:53:11;;;;;;;;;7.00;5.00;;;;;;;;5085006;27;45362;-77
2022/05/17 04:55:36;;;;;;;;;5.00;5.00;;;;;;;;5068985;28;46297;-76
2022/05/17 04:58:01;;;;;;;;;8.00;6.33;;;;;;;;5061485;27;45387;-76
2022/05/17 05:00:27;;;;;;;;;3.33;3.33;;;;;;;;5059746;28;45273;-77
2022/05/17 05:02:53;;;;;;;;;6.67;6.33;;;;;;;;5059820;28;45352;-77
2022/05/17 05:05:18;;;;;;;;;11.00;10.00;;;;;;;;5059362;28;45545;-77
2022/05/17 05:07:44;;;;;;;;;11.33;7.67;;;;;;;;5059460;28;45366;-77
2022/05/17 05:10:10;;;;;;;;;5.33;5.33;;;;;;;;5059628;28;45375;-77
2022/05/17 05:12:35;;;;;;;;;6.67;5.33;;;;;;;;5059712;28;45250;-77
2022/05/17 05:15:02;;;;;;;;;4.00;4.00;;;;;;;;5059300;28;46084;-77
2022/05/17 05:17:31;;;;;;;;;4.33;4.33;;;;;;;;5059357;28;45318;-76
2022/05/17 05:19:57;;;;;;;;;10.67;8.33;;;;;;;;5059388;28;45209;-84
2022/05/17 05:22:22;;;;;;;;;9.67;7.00;;;;;;;;5059328;28;45220;-78
2022/05/17 05:24:48;;;;;;;;;6.67;5.33;;;;;;;;5057643;28;47176;-78
2022/05/17 05:27:13;;;;;;;;;8.00;5.00;;;;;;;;5060167;28;45430;-79
2022/05/17 05:29:39;;;;;;;;;6.33;6.33;;;;;;;;5059686;28;45419;-77
2022/05/17 05:32:04;;;;;;;;;9.33;7.00;;;;;;;;5059791;28;45394;-78
2022/05/17 05:34:29;;;;;;;;;8.33;6.00;;;;;;;;5059893;28;46035;-79
2022/05/17 05:36:55;;;;;;;;;7.00;6.00;;;;;;;;5059208;28;45291;-77
2022/05/17 05:39:21;;;;;;;;;10.00;9.00;;;;;;;;5059433;28;45400;-77
2022/05/17 05:41:47;;;;;;;;;9.33;7.00;;;;;;;;5059531;28;45488;-78
2022/05/17 05:44:12;;;;;;;;;7.33;7.33;;;;;;;;5059060;28;45531;-78
2022/05/17 05:46:37;;;;;;;;;15.33;9.67;;;;;;;;5058961;28;45281;-78
2022/05/17 05:49:03;;;;;;;;;13.67;10.67;;;;;;;;5059209;28;45419;-79
2022/05/17 05:51:28;;;;;;;;;11.33;8.00;;;;;;;;5059385;28;45546;-78
2022/05/17 05:53:53;;;;;;;;;10.00;7.00;;;;;;;;5058837;28;47013;-78
2022/05/17 05:56:18;;;;;;;;;9.67;8.67;;;;;;;;5059421;28;45302;-78
2022/05/17 05:58:43;;;;;;;;;12.33;12.33;;;;;;;;5058942;28;45393;-77
2022/05/17 06:01:09;;;;;;;;;10.67;7.67;;;;;;;;5059056;28;45274;-80
2022/05/17 06:03:35;;;;;;;;;9.00;8.00;;;;;;;;5059126;28;46058;-78
2022/05/17 06:06:01;;;;;;;;;10.67;9.00;;;;;;;;5060042;28;45437;-79
2022/05/17 06:08:26;;;;;;;;;13.00;9.67;;;;;;;;5058761;28;45388;-78
2022/05/17 06:10:52;;;;;;;;;9.00;6.00;;;;;;;;5058674;28;45472;-78
2022/05/17 06:13:18;;;;;;;;;10.00;8.67;;;;;;;;5058570;28;46680;-78
2022/05/17 06:15:44;;;;;;;;;10.00;9.00;;;;;;;;5058443;28;45434;-79
2022/05/17 06:18:09;;;;;;;;;10.00;8.00;;;;;;;;5058546;28;45367;-78
2022/05/17 06:20:35;;;;;;;;;29.67;24.00;;;;;;;;5058524;28;45372;-78
2022/05/17 06:23:01;;;;;;;;;7.67;7.67;;;;;;;;5057998;28;46497;-79
2022/05/17 06:25:26;;;;;;;;;20.33;17.00;;;;;;;;5058157;28;45317;-78
2022/05/17 06:27:51;;;;;;;;;13.67;12.00;;;;;;;;5058158;28;45379;-78
2022/05/17 06:30:17;;;;;;;;;16.00;13.00;;;;;;;;5058195;28;45431;-81
2022/05/17 06:32:43;;;;;;;;;11.00;11.00;;;;;;;;5058131;28;46384;-78
2022/05/17 06:35:08;;;;;;;;;9.67;8.00;;;;;;;;5057538;28;45492;-78
2022/05/17 06:37:33;;;;;;;;;13.00;10.33;;;;;;;;5058063;28;45348;-80
2022/05/17 06:39:59;;;;;;;;;6.33;6.33;;;;;;;;5058305;28;45217;-80
2022/05/17 06:42:24;;;;;;;;;7.67;7.00;;;;;;;;5057967;28;47061;-80
2022/05/17 06:44:49;;;;;;;;;10.33;9.33;;;;;;;;5058080;28;45376;-79
2022/05/17 06:47:15;;;;;;;;;11.33;9.33;;;;;;;;5058206;28;45435;-80
2022/05/17 06:49:40;;;;;;;;;10.00;8.67;;;;;;;;5058217;28;45157;-79
2022/05/17 06:52:08;;;;;;;;;12.33;10.00;;;;;;;;5057606;28;46048;-80
2022/05/17 06:54:33;;;;;;;;;10.67;10.67;;;;;;;;5057670;28;45539;-79
2022/05/17 06:57:06;;;;;;;;;9.00;8.00;;;;;;;;5057764;28;45390;-79
2022/05/17 06:59:32;;;;;;;;;11.33;8.33;;;;;;;;5058047;28;45293;-78
2022/05/17 07:01:59;;;;;;;;;10.00;8.00;;;;;;;;5057522;28;46271;-79
2022/05/17 07:04:25;;;;;;;;;12.67;10.00;;;;;;;;5057746;28;45292;-80
2022/05/17 07:06:50;;;;;;;;;10.67;9.00;;;;;;;;5057481;28;45617;-82
2022/05/17 07:09:15;;;;;;;;;10.33;7.67;;;;;;;;5058011;28;45278;-78
2022/05/17 07:14:24;;;;;;;;;8.67;8.33;;;;;;;;5057555;28;45425;-81
2022/05/17 07:16:49;;;;;;;;;12.33;8.33;;;;;;;;5057560;28;45402;-81
2022/05/17 07:19:14;;;;;;;;;7.67;7.00;;;;;;;;5057940;28;45389;-79
2022/05/17 07:21:40;;;;;;;;;10.00;9.00;;;;;;;;5056510;28;46474;-82
2022/05/17 07:24:05;;;;;;;;;8.00;8.00;;;;;;;;5057440;28;45300;-78
2022/05/17 07:26:30;;;;;;;;;11.67;9.33;;;;;;;;5057594;28;45359;-78
2022/05/17 07:28:55;;;;;;;;;7.67;7.67;;;;;;;;5057791;28;45470;-78
2022/05/17 07:31:21;;;;;;;;;8.00;8.00;;;;;;;;5057055;28;46690;-79
2022/05/17 07:33:46;;;;;;;;;8.00;8.00;;;;;;;;5057235;28;45582;-79
2022/05/17 07:36:12;;;;;;;;;8.67;7.00;;;;;;;;5057336;28;45290;-80
2022/05/17 07:38:37;;;;;;;;;12.00;8.67;;;;;;;;5057406;28;45313;-79
2022/05/17 07:41:03;;;;;;;;;10.00;8.00;;;;;;;;5057428;28;45479;-80
2022/05/17 07:43:28;;;;;;;;;5.00;5.00;;;;;;;;5057016;28;45433;-79
2022/05/17 07:45:54;;;;;;;;;8.67;8.00;;;;;;;;5057034;28;45278;-82
2022/05/17 07:48:20;;;;;;;;;6.67;6.33;;;;;;;;5059156;28;45461;-80
2022/05/17 07:50:46;;;;;;;;;8.00;8.00;;;;;;;;5060345;28;46580;-81
2022/05/17 07:53:12;;;;;;;;;10.00;7.00;;;;;;;;5060509;28;45892;-80
2022/05/17 07:55:38;;;;;;;;;5.67;5.33;;;;;;;;5060265;28;45249;-80
2022/05/17 07:58:04;;;;;;;;;8.33;6.67;;;;;;;;5060980;28;45424;-81
2022/05/17 08:00:30;;;;;;;;;8.33;6.00;;;;;;;;5060392;28;47244;-81
2022/05/17 08:02:57;;;;;;;;;7.00;6.00;;;;;;;;5060484;28;45311;-79
2022/05/17 08:05:23;;;;;;;;;9.33;8.00;;;;;;;;5060524;28;45323;-81
2022/05/17 08:07:49;;;;;;;;;8.33;7.00;;;;;;;;5060440;28;45478;-82
2022/05/17 08:10:15;;;;;;;;;6.67;5.00;;;;;;;;5060179;28;45441;-80
2022/05/17 08:12:40;;;;;;;;;7.67;7.67;;;;;;;;5060445;28;45396;-80
2022/05/17 08:15:05;;;;;;;;;8.00;7.33;;;;;;;;5060267;28;45472;-79
2022/05/17 08:17:31;;;;;;;;;6.00;6.00;;;;;;;;5060569;28;45405;-80
2022/05/17 08:19:56;;;;;;;;;6.67;6.67;;;;;;;;5060229;28;46587;-80
2022/05/17 08:22:21;;;;;;;;;7.67;5.33;;;;;;;;5060262;28;45249;-82
2022/05/17 08:27:39;;;;;;;;;9.33;4.67;;;;;;;;5060580;28;45312;-79
2022/05/17 08:30:07;;;;;;;;;10.00;7.00;;;;;;;;5060014;28;47024;-80
2022/05/17 08:35:16;;;;;;;;;7.33;6.00;;;;;;;;5060212;28;45250;-81
2022/05/17 08:37:41;;;;;;;;;10.00;7.00;;;;;;;;5060171;28;45217;-79
2022/05/17 08:40:07;;;;;;;;;8.00;6.33;;;;;;;;5059544;28;46188;-78
2022/05/17 08:42:36;;;;;;;;;6.67;6.00;;;;;;;;5059928;28;45170;-79
2022/05/17 08:45:05;;;;;;;;;6.00;5.33;;;;;;;;5059855;28;45462;-80
2022/05/17 08:47:37;;;;;;;;;7.67;5.67;;;;;;;;5060057;28;45222;-80
2022/05/17 08:50:08;;;;;;;;;6.00;6.00;;;;;;;;5059641;28;46048;-80
2022/05/17 08:52:36;;;;;;;;;7.00;5.00;;;;;;;;5059615;28;45431;-79
2022/05/17 08:55:01;;;;;;;;;5.33;5.33;;;;;;;;5059949;28;45261;-80
2022/05/17 08:57:39;;;;;;;;;7.00;5.67;;;;;;;;5059813;28;45333;-73
2022/05/17 09:00:06;;;;;;;;;6.33;6.33;;;;;;;;5059243;28;45577;-80
2022/05/17 09:02:40;;;;;;;;;7.67;5.67;;;;;;;;5059287;28;45508;-81
2022/05/17 09:05:05;;;;;;;;;4.67;4.00;;;;;;;;5059796;28;45264;-80
2022/05/17 09:07:43;;;;;;;;;6.33;5.00;;;;;;;;5059792;28;45304;-79
2022/05/17 09:10:14;;;;;;;;;5.00;5.00;;;;;;;;5059330;28;46859;-78
2022/05/17 09:12:40;;;;;;;;;4.00;4.00;;;;;;;;5059280;28;45364;-80
2022/05/17 09:15:05;;;;;;;;;5.33;5.00;;;;;;;;5059623;28;45308;-80
2022/05/17 09:17:31;;;;;;;;;4.67;4.67;;;;;;;;5059443;28;45270;-79
2022/05/17 09:19:56;;;;;;;;;5.00;5.00;;;;;;;;5059237;28;47435;-80
2022/05/17 09:22:22;;;;;;;;;6.00;5.00;;;;;;;;5059237;28;45420;-80
2022/05/17 09:24:59;;;;;;;;;3.67;3.67;;;;;;;;5059267;28;45449;-80
2022/05/17 09:27:25;;;;;;;;;7.00;4.00;;;;;;;;5059485;28;45337;-82
2022/05/17 09:29:53;;;;;;;;;4.00;4.00;;;;;;;;5058977;28;46270;-79
2022/05/17 09:32:26;;;;;;;;;3.67;3.67;;;;;;;;5059039;28;45242;-81
2022/05/17 09:34:59;;;;;;;;;7.33;4.67;;;;;;;;5059347;28;45356;-79
2022/05/17 09:37:30;;;;;;;;;3.33;3.33;;;;;;;;5059108;28;45545;-78
2022/05/17 09:39:55;;;;;;;;;4.00;4.00;;;;;;;;5059024;28;45407;-79
2022/05/17 09:42:26;;;;;;;;;3.00;3.00;;;;;;;;5058997;28;45308;-78
2022/05/17 09:44:52;;;;;;;;;6.00;5.00;;;;;;;;5058924;28;45312;-80
2022/05/17 09:47:26;;;;;;;;;4.33;3.00;;;;;;;;5059118;28;45343;-79
2022/05/17 09:52:38;;;;;;;;;1.67;1.67;;;;;;;;5060678;27;45297;-77
2022/05/17 09:55:12;;;;;;;;;4.00;2.67;;;;;;;;5084571;27;45485;-80
2022/05/17 09:57:49;;;;;;;;;2.67;1.67;;;;;;;;5099499;27;45313;-79
2022/05/17 10:00:20;;;;;;;;;3.33;2.00;;;;;;;;5091825;27;46611;-79
2022/05/17 10:02:55;;;;;;;;;4.00;2.00;;;;;;;;5087096;27;45394;-78
2022/05/17 10:05:23;;;;;;;;;19.75;16.75;;;;;;;;5078828;27;45404;-78
2022/05/17 10:07:54;;;;;;;;;2.67;2.33;;;;;;;;5093083;27;45503;-78
2022/05/17 10:10:22;;;;;;;;;5.25;4.00;;;;;;;;5076144;27;45472;-79
2022/05/17 10:12:49;;;;;;;;;3.00;3.00;;;;;;;;5076075;27;45410;-79
2022/05/17 10:15:14;;;;;;;;;3.25;3.25;;;;;;;;5078575;27;45312;-79
2022/05/17 10:17:43;;;;;;;;;1.00;1.00;;;;;;;;5077459;28;45391;-77
2022/05/17 10:20:12;;;;;;;;;1.00;1.00;;;;;;;;5076997;28;46690;-79
2022/05/17 10:22:44;;;;;;;;;1.00;1.00;;;;;;;;5070813;27;45486;-80
2022/05/17 10:25:13;;;;;;;;;3.00;1.25;;;;;;;;5070820;28;45493;-79
2022/05/17 10:27:43;;;;;;;;;2.00;1.00;;;;;;;;5078149;27;45324;-79
2022/05/17 10:30:14;;;;;;;;;2.00;2.00;;;;;;;;5077822;27;45414;-80
2022/05/17 10:32:44;;;;;;;;;0.50;0.50;;;;;;;;5069963;27;45373;-82
2022/05/17 10:35:16;;;;;;;;;3.25;2.25;;;;;;;;5057708;28;45355;-80
2022/05/17 10:37:57;;;;;;;;;3.00;2.00;;;;;;;;5057957;28;45357;-80
2022/05/17 10:40:26;;;;;;;;;1.50;1.50;;;;;;;;5057499;28;46747;-80
2022/05/17 10:42:51;;;;;;;;;3.25;2.75;;;;;;;;5068690;27;45405;-79
2022/05/17 10:45:33;;;;;;;;;1.00;1.00;;;;;;;;5081215;27;46811;-79
2022/05/17 10:47:58;;;;;;;;;2.25;2.25;;;;;;;;5057675;28;45458;-78
2022/05/17 10:50:29;;;;;;;;;0.00;0.00;;;;;;;;5057004;28;46342;-80
2022/05/17 10:52:58;;;;;;;;;4.75;1.75;;;;;;;;5068643;28;45540;-78
2022/05/17 10:55:42;;;;;;;;;4.00;4.00;;;;;;;;5077419;27;45356;-80
2022/05/17 10:58:27;;;;;;;;;1.25;1.25;;;;;;;;5077853;27;45450;-79
2022/05/17 11:01:05;;;;;;;;;2.50;1.75;;;;;;;;5069866;28;47207;-79
2022/05/17 11:03:42;;;;;;;;;4.00;2.25;;;;;;;;5061758;27;45227;-79
2022/05/17 11:06:26;;;;;;;;;1.50;1.50;;;;;;;;5057078;28;45412;-78
2022/05/17 11:08:57;;;;;;;;;3.00;3.00;;;;;;;;5057143;28;45414;-81
2022/05/17 11:11:34;;;;;;;;;11.25;9.50;;;;;;;;5056805;28;47274;-80
2022/05/17 11:14:05;;;;;;;;;2.50;2.25;;;;;;;;5058287;27;45475;-80
2022/05/17 11:16:30;;;;;;;;;2.00;2.00;;;;;;;;5097976;27;45311;-78
2022/05/17 11:18:59;;;;;;;;;3.00;1.67;;;;;;;;5097891;27;45410;-80
2022/05/17 11:21:29;;;;;;;;;3.00;1.67;;;;;;;;5097661;27;46444;-77
2022/05/17 11:24:00;;;;;;;;;2.33;1.33;;;;;;;;5097517;27;45533;-79
2022/05/17 11:26:38;;;;;;;;;2.33;2.33;;;;;;;;5076946;28;45458;-80
2022/05/17 11:29:30;;;;;;;;;4.00;2.67;;;;;;;;5077239;27;45405;-76
2022/05/17 11:31:56;;;;;;;;;2.00;2.00;;;;;;;;5069136;27;46663;-79
2022/05/17 11:34:30;;;;;;;;;8.33;8.33;;;;;;;;5056750;28;45403;-79
2022/05/17 11:37:08;;;;;;;;;6.33;5.00;;;;;;;;5056801;28;45250;-80
2022/05/17 11:39:41;;;;;;;;;2.67;2.67;;;;;;;;5084661;27;45336;-79
2022/05/17 11:42:06;;;;;;;;;2.00;2.00;;;;;;;;5077869;27;46343;-79
2022/05/17 11:44:52;;;;;;;;;2.00;2.00;;;;;;;;5076823;28;45429;-80
2022/05/17 11:47:26;;;;;;;;;1.67;1.67;;;;;;;;5077997;27;45523;-79
2022/05/17 11:49:52;;;;;;;;;2.00;2.00;;;;;;;;5078089;27;45578;-80
2022/05/17 11:52:23;;;;;;;;;31.75;29.75;;;;;;;;5076492;28;45367;-78
2022/05/17 11:54:49;;;;;;;;;1.00;1.00;;;;;;;;5076364;27;45432;-82
2022/05/17 11:57:18;;;;;;;;;4.00;4.00;;;;;;;;5076519;27;45437;-82
2022/05/17 11:59:52;;;;;;;;;3.67;2.00;;;;;;;;5089516;27;45383;-81
2022/05/17 12:02:18;;;;;;;;;0.67;0.67;;;;;;;;5089965;27;46486;-78
2022/05/17 12:04:44;;;;;;;;;2.67;2.67;;;;;;;;5077604;27;46066;-78
2022/05/17 12:07:21;;;;;;;;;4.67;3.00;;;;;;;;5093153;27;45410;-82
2022/05/17 12:09:48;;;;;;;;;5.00;5.00;;;;;;;;5088009;27;45361;-79
2022/05/17 12:12:27;;;;;;;;;7.67;6.00;;;;;;;;5079918;27;45356;-82
2022/05/17 12:15:09;;;;;;;;;4.67;4.67;;;;;;;;5075068;27;45808;-75
2022/05/17 12:17:41;;;;;;;;;15.00;14.00;;;;;;;;5066727;27;45575;-75
2022/05/17 12:20:12;;;;;;;;;9.33;8.00;;;;;;;;5075782;28;45462;-78
2022/05/17 12:22:44;;;;;;;;;8.67;7.00;;;;;;;;5093067;27;46568;-77
2022/05/17 12:25:22;;;;;;;;;7.00;7.00;;;;;;;;5093975;27;45486;-75
2022/05/17 12:27:47;;;;;;;;;3.33;3.33;;;;;;;;5084462;27;45427;-76
2022/05/17 12:33:10;;;;;;;;;4.00;3.67;;;;;;;;5076353;28;45426;-75
2022/05/17 12:35:35;;;;;;;;;4.33;4.33;;;;;;;;5083281;27;45536;-74
2022/05/17 12:38:01;;;;;;;;;17.00;15.00;;;;;;;;5100380;27;45404;-74
2022/05/17 12:43:23;;;;;;;;;5.33;3.00;;;;;;;;5079281;27;45470;-77
2022/05/17 12:45:49;;;;;;;;;6.00;4.00;;;;;;;;5084026;27;45598;-75
2022/05/17 12:48:26;;;;;;;;;3.00;3.00;;;;;;;;5100545;27;45334;-79
2022/05/17 12:50:53;;;;;;;;;3.33;3.33;;;;;;;;5080773;27;45466;-75
2022/05/17 12:53:21;;;;;;;;;4.67;4.67;;;;;;;;5079720;27;47119;-75
2022/05/17 12:56:16;;;;;;;;;4.00;4.00;;;;;;;;5087499;27;45362;-80
2022/05/17 12:58:50;;;;;;;;;7.00;7.00;;;;;;;;5067921;28;45409;-75
2022/05/17 13:01:20;;;;;;;;;4.67;3.00;;;;;;;;5057546;28;45487;-73
2022/05/17 13:03:45;;;;;;;;;2.00;2.00;;;;;;;;5057111;28;46188;-83
2022/05/17 13:06:10;;;;;;;;;2.00;2.00;;;;;;;;5057423;28;45316;-81
2022/05/17 13:08:37;;;;;;;;;5.00;3.33;;;;;;;;5057730;28;45431;-85
2022/05/17 13:11:04;;;;;;;;;9.00;9.00;;;;;;;;5057626;28;45487;-84
2022/05/17 13:13:31;;;;;;;;;3.00;3.00;;;;;;;;5057383;28;45489;-83
2022/05/17 13:16:04;;;;;;;;;4.00;4.00;;;;;;;;5057096;28;45434;-83
2022/05/17 13:18:46;;;;;;;;;5.00;5.00;;;;;;;;5057212;28;45281;-85
2022/05/17 13:21:18;;;;;;;;;5.33;3.33;;;;;;;;5057041;28;45499;-83
2022/05/17 13:23:45;;;;;;;;;4.33;4.00;;;;;;;;5057121;28;46324;-82
2022/05/17 13:26:13;;;;;;;;;5.00;5.00;;;;;;;;5056773;28;45394;-80
2022/05/17 13:28:38;;;;;;;;;8.33;8.33;;;;;;;;5057017;28;45305;-83
2022/05/17 13:31:08;;;;;;;;;3.67;3.67;;;;;;;;5057212;28;45383;-81
2022/05/17 13:33:35;;;;;;;;;7.00;6.00;;;;;;;;5057111;28;45673;-81
2022/05/17 13:36:08;;;;;;;;;4.00;4.00;;;;;;;;5058871;28;45285;-84
2022/05/17 13:38:35;;;;;;;;;4.00;4.00;;;;;;;;5058992;28;45495;-79
2022/05/17 13:41:04;;;;;;;;;2.67;2.67;;;;;;;;5058973;28;45497;-81
2022/05/17 13:43:31;;;;;;;;;4.00;3.67;;;;;;;;5058479;28;47441;-80
2022/05/17 13:46:05;;;;;;;;;2.00;2.00;;;;;;;;5057731;28;45327;-79
2022/05/17 13:48:31;;;;;;;;;2.33;2.33;;;;;;;;5058782;28;45447;-80
2022/05/17 13:50:58;;;;;;;;;3.00;3.00;;;;;;;;5058722;28;45731;-81
2022/05/17 13:53:25;;;;;;;;;6.67;5.33;;;;;;;;5059197;27;45653;-83
2022/05/17 13:55:51;;;;;;;;;4.00;4.00;;;;;;;;5058389;28;45572;-83
2022/05/17 13:58:17;;;;;;;;;2.00;2.00;;;;;;;;5058983;28;45275;-80
2022/05/17 14:00:57;;;;;;;;;3.00;3.00;;;;;;;;5058894;28;45397;-83
2022/05/17 14:03:23;;;;;;;;;3.00;3.00;;;;;;;;5058459;28;46556;-81
2022/05/17 14:05:51;;;;;;;;;3.67;2.00;;;;;;;;5058967;27;45353;-83
2022/05/17 14:13:56;;;;;;;;;2.33;2.33;;;;;;;;5058199;28;45285;-83
2022/05/17 14:16:23;;;;;;;;;3.00;3.00;;;;;;;;5058424;28;45279;-79
2022/05/17 14:18:49;;;;;;;;;4.67;3.00;;;;;;;;5058677;28;45228;-79
2022/05/17 14:21:15;;;;;;;;;4.00;4.00;;;;;;;;5058620;28;45365;-81
2022/05/17 14:23:40;;;;;;;;;5.00;4.00;;;;;;;;5058762;28;46068;-79
2022/05/17 14:26:06;;;;;;;;;6.00;6.00;;;;;;;;5058102;28;45230;-82
2022/05/17 14:28:31;;;;;;;;;5.33;5.33;;;;;;;;5058490;28;45427;-81
2022/05/17 14:30:57;;;;;;;;;3.00;3.00;;;;;;;;5058660;27;45305;-83
2022/05/17 14:33:23;;;;;;;;;3.33;3.00;;;;;;;;5058126;28;45388;-80
2022/05/17 14:35:55;;;;;;;;;3.00;3.00;;;;;;;;5058153;28;45436;-84
2022/05/17 14:38:21;;;;;;;;;2.00;2.00;;;;;;;;5058465;28;45446;-83
2022/05/17 14:40:46;;;;;;;;;4.33;4.33;;;;;;;;5058111;28;45251;-82
2022/05/17 14:43:12;;;;;;;;;3.33;2.00;;;;;;;;5058166;28;46639;-81
2022/05/17 14:45:37;;;;;;;;;3.00;3.00;;;;;;;;5058131;28;45402;-82
2022/05/17 14:48:03;;;;;;;;;3.33;2.00;;;;;;;;5058314;28;45387;-79
2022/05/17 14:50:28;;;;;;;;;2.67;2.67;;;;;;;;5058591;27;45440;-83
2022/05/17 14:52:57;;;;;;;;;2.00;2.00;;;;;;;;5057812;28;45361;-81
2022/05/17 14:55:24;;;;;;;;;3.00;3.00;;;;;;;;5057958;28;45210;-82
2022/05/17 14:57:49;;;;;;;;;3.00;3.00;;;;;;;;5057396;28;45270;-81
2022/05/17 15:00:17;;;;;;;;;2.00;2.00;;;;;;;;5057798;27;45524;-81
2022/05/17 15:02:51;;;;;;;;;4.00;3.00;;;;;;;;5057699;28;46130;-81
2022/05/17 15:05:17;;;;;;;;;4.00;2.33;;;;;;;;5057839;28;45473;-82
2022/05/17 15:07:44;;;;;;;;;5.00;4.00;;;;;;;;5057654;28;45304;-81
2022/05/17 15:10:11;;;;;;;;;13.00;13.00;;;;;;;;5057972;28;45321;-83